page 3152 of 1016686 registered users

eBook PostsUsers

  1. 0anniewangtw registered @ 2011-05-04 13:39:28, last login @ 2011-05-04 13:41:08
  2. 0ArcUser registered @ 2011-05-04 13:46:32, last login @ 2011-05-04 13:46:32
  3. 0gunshi registered @ 2011-05-04 13:46:39, last login @ 2011-05-04 13:46:39
  4. 0houstaal registered @ 2011-05-04 13:48:15, last login @ 2011-05-04 13:49:32
  5. 0antenehmitiku registered @ 2011-05-04 13:50:48, last login @ 2011-05-04 13:50:48
  6. 0pctechman2 registered @ 2011-05-04 13:50:52, last login @ 2011-05-04 14:00:06
  7. 0shoaibzafar786 registered @ 2011-05-04 13:51:20, last login @ 2011-05-04 13:51:20
  8. 0eduardodamata registered @ 2011-05-04 13:52:30, last login @ 2011-05-04 13:53:05
  9. 0john63525 registered @ 2011-05-04 13:53:26, last login @ 2011-05-04 13:53:26
  10. 0crablele registered @ 2011-05-04 13:54:14, last login @ 2011-05-04 13:54:14
  11. 0vingador6 registered @ 2011-05-04 13:54:49, last login @ 2011-05-04 13:58:44
  12. 0woaipty registered @ 2011-05-04 13:57:42, last login @ 2011-05-04 13:57:42
  13. 0shivam_aggarwal registered @ 2011-05-04 14:02:28, last login @ 2011-05-04 14:02:28
  14. 0wind77777 registered @ 2011-05-04 14:02:36, last login @ 2011-05-04 14:02:36
  15. 0jaltiti registered @ 2011-05-04 14:04:45, last login @ 2011-05-04 14:09:13
  16. 0henry_peng registered @ 2011-05-04 14:13:33, last login @ 2011-05-04 14:14:25
  17. 0npkaur registered @ 2011-05-04 14:13:55, last login @ 2011-05-04 14:13:55
  18. 0vishu188 registered @ 2011-05-04 14:16:24, last login @ 2011-05-04 14:16:24
  19. 0bobmarley3003 registered @ 2011-05-04 14:16:27, last login @ 2011-05-04 14:18:11
  20. 0fionclz registered @ 2011-05-04 14:18:27, last login @ 2011-05-04 14:18:27
  21. 0waterlily5149 registered @ 2011-05-04 14:18:35, last login @ 2011-05-04 14:18:35
  22. 0hartdan94 registered @ 2011-05-04 14:19:10, last login @ 2011-05-04 14:19:10
  23. 0kwabee2002 registered @ 2011-05-04 14:19:20, last login @ 2011-05-04 14:19:20
  24. 0chenei123 registered @ 2011-05-04 14:21:52, last login @ 2011-05-04 14:21:52
  25. 0cpbl98 registered @ 2011-05-04 14:23:56, last login @ 2011-05-04 14:23:56
  26. 0tejosuhen registered @ 2011-05-04 14:24:59, last login @ 2011-05-04 14:24:59
  27. 0nutan registered @ 2011-05-04 14:25:22, last login @ 2011-05-04 14:25:22
  28. 0windyfire registered @ 2011-05-04 14:26:03, last login @ 2011-05-04 14:26:03
  29. 0imangamali registered @ 2011-05-04 14:27:50, last login @ 2011-05-04 14:27:50
  30. 0Clairecx registered @ 2011-05-04 14:28:38, last login @ 2011-05-04 14:28:38
  31. 0omid990 registered @ 2011-05-04 14:30:05, last login @ 2011-05-04 14:31:41
  32. 0catlak99 registered @ 2011-05-04 14:30:35, last login @ 2011-05-04 14:37:15
  33. 0maryamkh registered @ 2011-05-04 14:30:53, last login @ 2011-05-04 14:35:48
  34. 0danielrindge registered @ 2011-05-04 14:32:55, last login @ 2011-05-04 14:32:55
  35. 0Viuccaiw39 registered @ 2011-05-04 14:33:54, last login @ 2011-05-04 14:33:54
  36. 0Lebrune registered @ 2011-05-04 14:36:20, last login @ 2011-05-04 14:37:18
  37. 0Johnjay registered @ 2011-05-04 14:40:27, last login @ 2011-05-04 14:40:27
  38. 0zunsius registered @ 2011-05-04 14:43:36, last login @ 2011-05-04 14:45:45
  39. 0222anton222 registered @ 2011-05-04 14:44:06, last login @ 2011-05-04 14:44:29
  40. 0jbauer1620 registered @ 2011-05-04 14:45:53, last login @ 2011-05-04 14:45:53
  41. 0batheshekhar registered @ 2011-05-04 14:50:04, last login @ 2011-05-04 14:50:04
  42. 0eeeeee registered @ 2011-05-04 14:54:22, last login @ 2011-05-04 14:54:22
  43. 0versions registered @ 2011-05-04 14:55:42, last login @ 2011-05-04 14:55:42
  44. 0spmg2011 registered @ 2011-05-04 14:56:05, last login @ 2011-05-04 14:56:05
  45. 0iimage registered @ 2011-05-04 15:02:49, last login @ 2011-05-04 15:02:49
  46. 0matedameng registered @ 2011-05-04 15:02:59, last login @ 2011-05-04 15:02:59
  47. 0ekky registered @ 2011-05-04 15:05:29, last login @ 2011-05-04 15:05:29
  48. 0goyalmks registered @ 2011-05-04 15:07:55, last login @ 2011-05-04 15:13:20
  49. 0ntphuong0411 registered @ 2011-05-04 15:08:31, last login @ 2011-05-04 15:08:31
  50. 0lkgood registered @ 2011-05-04 15:12:17, last login @ 2011-05-04 15:12:17
  51. 0hiltarus registered @ 2011-05-04 15:12:20, last login @ 2011-05-04 15:12:20
  52. 0HebrewProfessor registered @ 2011-05-04 15:14:14, last login @ 2011-05-04 15:14:14
  53. 0mrezat registered @ 2011-05-04 15:14:50, last login @ 2011-05-04 15:14:50
  54. 0prem_kumar registered @ 2011-05-04 15:18:07, last login @ 2011-05-04 15:18:07
  55. 0shanni930 registered @ 2011-05-04 15:21:36, last login @ 2011-05-04 15:21:36
  56. 0sb20110502 registered @ 2011-05-04 15:23:07, last login @ 2011-05-04 15:32:25
  57. 0juanitowatios77 registered @ 2011-05-04 15:23:25, last login @ 2011-05-04 15:23:25
  58. 0daraavs55 registered @ 2011-05-04 15:27:13, last login @ 2011-05-04 15:27:13
  59. 0huangzongxiong registered @ 2011-05-04 15:27:40, last login @ 2011-05-04 15:27:40
  60. 0beltranroldan registered @ 2011-05-04 15:29:37, last login @ 2011-05-04 15:29:37
  61. 0sdytgdp registered @ 2011-05-04 15:30:05, last login @ 2011-05-04 15:34:37
  62. 0mikesolis1 registered @ 2011-05-04 15:30:26, last login @ 2011-05-04 15:30:26
  63. 0russtic registered @ 2011-05-04 15:32:22, last login @ 2011-05-04 15:32:22
  64. 0samaniii registered @ 2011-05-04 15:33:06, last login @ 2011-05-04 15:35:22
  65. 0jz810826 registered @ 2011-05-04 15:34:29, last login @ 2011-05-04 15:34:29
  66. 0hp8989 registered @ 2011-05-04 15:34:58, last login @ 2011-05-04 15:37:35
  67. 0vsyamprasad registered @ 2011-05-04 15:36:36, last login @ 2011-05-04 15:36:36
  68. 0yuqiao registered @ 2011-05-04 15:46:30, last login @ 2011-05-04 15:46:50
  69. 0maxiroy registered @ 2011-05-04 15:49:40, last login @ 2011-05-04 15:49:40
  70. 0guiskes registered @ 2011-05-04 15:51:10, last login @ 2011-05-04 15:51:10
  71. 0calperin registered @ 2011-05-04 15:53:05, last login @ 2011-05-04 15:53:05
  72. 0msamadikh registered @ 2011-05-04 15:53:35, last login @ 2011-05-04 15:55:28
  73. 0nagalakshmi registered @ 2011-05-04 15:54:23, last login @ 2011-05-04 15:54:23
  74. 0nessmad registered @ 2011-05-04 16:01:07, last login @ 2011-05-04 16:01:07
  75. 0tcpeng registered @ 2011-05-04 16:01:22, last login @ 2011-05-04 16:01:22
  76. 0Sabrina606 registered @ 2011-05-04 16:01:45, last login @ 2011-05-04 16:01:45
  77. 0yorkkm registered @ 2011-05-04 16:03:37, last login @ 2011-05-04 16:03:37
  78. 0guestkuruma registered @ 2011-05-04 16:07:16, last login @ 2011-05-04 16:07:16
  79. 0tonightsun registered @ 2011-05-04 16:15:58, last login @ 2011-05-04 16:16:16
  80. 0meero_12 registered @ 2011-05-04 16:17:24, last login @ 2011-05-04 16:19:52
  81. 0Giedre registered @ 2011-05-04 16:17:29, last login @ 2011-05-04 16:17:29
  82. 0cicieve registered @ 2011-05-04 16:18:32, last login @ 2011-05-04 16:18:32
  83. 0tempno registered @ 2011-05-04 16:19:51, last login @ 2011-05-04 16:19:51
  84. 0ashoksingh86 registered @ 2011-05-04 16:19:58, last login @ 2011-05-04 16:19:58
  85. 0indir registered @ 2011-05-04 16:20:07, last login @ 2011-05-04 16:22:10
  86. 0wchch registered @ 2011-05-04 16:21:47, last login @ 2011-05-04 16:21:47
  87. 0ttaylor registered @ 2011-05-04 16:21:55, last login @ 2011-05-04 16:21:55
  88. 0Howra registered @ 2011-05-04 16:22:19, last login @ 2011-05-04 16:22:19
  89. 0fktuning registered @ 2011-05-04 16:25:40, last login @ 2011-05-04 16:26:02
  90. 0Rantory registered @ 2011-05-04 16:27:43, last login @ 2011-05-04 16:30:34
  91. 0an311Zexstapketa registered @ 2011-05-04 16:30:07, last login @ 2011-05-04 16:30:07
  92. 0TronsBird registered @ 2011-05-04 16:30:47, last login @ 2011-05-04 16:30:47
  93. 0AgnesJuliers registered @ 2011-05-04 16:31:58, last login @ 2011-05-04 16:34:26
  94. 0eva3105 registered @ 2011-05-04 16:33:35, last login @ 2011-05-04 16:33:35
  95. 0Arwin4 registered @ 2011-05-04 16:33:53, last login @ 2011-05-04 16:33:53
  96. 0rockyrose registered @ 2011-05-04 16:34:04, last login @ 2011-05-04 16:34:04
  97. 0MeMi registered @ 2011-05-04 16:35:11, last login @ 2011-05-04 16:35:11
  98. 0afzalmughal1 registered @ 2011-05-04 16:38:28, last login @ 2011-05-04 16:49:49
  99. 0sandman13 registered @ 2011-05-04 16:40:16, last login @ 2011-05-04 16:48:07
  100. 0cyanide202 registered @ 2011-05-04 16:40:55, last login @ 2011-05-04 16:40:55
  101. 0zhls registered @ 2011-05-04 16:46:27, last login @ 2011-05-04 16:46:27

More...

[3162] [3161] [3160] [3159] [3158] [3157] [3156] [3155] [3154] [3153] [3152] [3151] [3150] [3149] [3148] [3147] [3146] [3145] [3144] [3143] ...[1]
Back to Top